createdAt,value
2023-05-01T00:00:08.102Z,0.88
2023-05-01T00:01:10.848Z,1.13
2023-05-01T00:02:12.638Z,1.20
2023-05-01T00:03:15.500Z,1.08
2023-05-01T00:04:17.562Z,0.90
2023-05-01T00:05:20.585Z,1.10
2023-05-01T00:06:23.813Z,1.08
2023-05-01T00:07:29.435Z,1.10
2023-05-01T00:08:31.693Z,1.08
2023-05-01T00:09:34.457Z,0.95
2023-05-01T00:10:36.547Z,1.20
2023-05-01T00:11:39.316Z,0.98
2023-05-01T00:12:41.071Z,1.08
2023-05-01T00:13:43.755Z,1.20
2023-05-01T00:14:46.410Z,1.10
2023-05-01T00:15:48.707Z,1.00
2023-05-01T00:16:51.477Z,1.20
2023-05-01T00:17:53.549Z,1.10
2023-05-01T00:18:56.235Z,1.10
2023-05-01T00:19:58.231Z,1.10
2023-05-01T00:21:01.246Z,1.10
2023-05-01T00:22:04.324Z,1.00
2023-05-01T00:23:07.007Z,1.08
2023-05-01T00:24:09.438Z,0.85
2023-05-01T00:25:15.371Z,1.30
2023-05-01T00:26:17.077Z,1.10
2023-05-01T00:27:19.912Z,1.00
2023-05-01T00:28:21.641Z,1.00
2023-05-01T00:29:24.340Z,1.02
2023-05-01T00:30:26.362Z,1.25
2023-05-01T00:31:29.023Z,0.98
2023-05-01T00:32:30.822Z,1.00
2023-05-01T00:33:33.585Z,0.88
2023-05-01T00:34:35.398Z,1.45
2023-05-01T00:35:38.346Z,1.17
2023-05-01T00:36:40.370Z,1.05
2023-05-01T00:37:44.852Z,1.00
2023-05-01T00:38:46.589Z,1.02
2023-05-01T00:39:49.318Z,1.08
2023-05-01T00:40:50.997Z,1.10
2023-05-01T00:41:54.889Z,1.20
2023-05-01T00:42:56.615Z,1.10
2023-05-01T00:43:59.669Z,1.08
2023-05-01T00:45:01.377Z,1.15
2023-05-01T00:46:04.138Z,1.00
2023-05-01T00:47:06.456Z,0.98
2023-05-01T00:48:10.846Z,1.05
2023-05-01T00:49:13.480Z,1.17
2023-05-01T00:50:16.173Z,1.10
2023-05-01T00:51:18.639Z,1.20
2023-05-01T00:52:21.423Z,1.00
2023-05-01T00:53:26.354Z,1.05
2023-05-01T00:54:29.491Z,0.95
2023-05-01T00:55:31.788Z,1.10
2023-05-01T00:56:34.688Z,1.10
2023-05-01T00:57:36.782Z,1.00
2023-05-01T00:58:39.535Z,1.23
2023-05-01T00:59:41.294Z,1.05
2023-05-01T01:00:44.286Z,1.15
2023-05-01T01:01:46.031Z,1.38
2023-05-01T01:02:48.885Z,1.20
2023-05-01T01:03:51.750Z,1.20
2023-05-01T01:04:54.723Z,1.27
2023-05-01T01:05:58.586Z,1.00
2023-05-01T01:07:09.200Z,1.10
2023-05-01T01:08:16.849Z,1.35
2023-05-01T01:09:27.165Z,1.00
2023-05-01T01:10:35.453Z,1.00
2023-05-01T01:11:43.317Z,1.17
2023-05-01T01:12:53.454Z,1.20
2023-05-01T01:13:59.947Z,1.00
2023-05-01T01:15:10.628Z,1.10
2023-05-01T01:16:20.036Z,1.00
2023-05-01T01:17:29.588Z,1.10
2023-05-01T01:18:36.126Z,1.40
2023-05-01T01:20:15.178Z,1.25
2023-05-01T01:21:23.602Z,1.30
2023-05-01T01:22:26.701Z,1.20
2023-05-01T01:23:54.640Z,1.20
2023-05-01T01:25:08.562Z,1.00
2023-05-01T01:26:30.232Z,1.00
2023-05-01T01:27:41.812Z,1.23
2023-05-01T01:29:15.103Z,1.02
2023-05-01T01:30:44.375Z,1.05
2023-05-01T01:31:55.380Z,1.00
2023-05-01T01:33:06.098Z,0.93
2023-05-01T01:34:14.662Z,1.55
2023-05-01T01:35:18.832Z,1.20
2023-05-01T01:36:25.757Z,1.10
2023-05-01T01:37:32.523Z,1.00
2023-05-01T01:38:47.894Z,1.42
2023-05-01T01:39:54.318Z,1.40
2023-05-01T01:41:01.225Z,1.20
2023-05-01T01:42:08.816Z,1.27
2023-05-01T01:43:13.671Z,1.05
2023-05-01T01:44:20.730Z,1.25
2023-05-01T01:45:26.216Z,1.30
2023-05-01T01:46:28.735Z,1.35
2023-05-01T01:47:33.216Z,1.40
2023-05-01T01:48:37.496Z,1.17
2023-05-01T01:49:45.945Z,1.00
2023-05-01T01:50:47.885Z,1.38
2023-05-01T01:51:52.494Z,1.30
2023-05-01T01:52:55.118Z,1.00
2023-05-01T01:53:59.930Z,1.10
2023-05-01T01:55:06.296Z,1.05
2023-05-01T01:56:09.925Z,1.15
2023-05-01T01:57:13.320Z,1.23
2023-05-01T01:58:17.124Z,1.30
2023-05-01T01:59:20.612Z,1.10
2023-05-01T02:00:24.441Z,1.17
2023-05-01T02:01:26.336Z,1.15
2023-05-01T02:02:31.173Z,1.20
2023-05-01T02:03:33.639Z,1.30
2023-05-01T02:04:37.185Z,1.08
2023-05-01T02:05:42.234Z,1.10
2023-05-01T02:06:45.922Z,1.48
2023-05-01T02:07:49.872Z,1.08
2023-05-01T02:08:52.938Z,1.40
2023-05-01T02:09:56.205Z,1.20
2023-05-01T02:11:01.784Z,1.20
2023-05-01T02:12:06.916Z,1.10
2023-05-01T02:13:09.073Z,1.00
2023-05-01T02:14:12.653Z,1.35
2023-05-01T02:15:16.866Z,1.05
2023-05-01T02:16:19.387Z,1.40
2023-05-01T02:17:22.490Z,1.20
2023-05-01T02:18:25.259Z,1.30
2023-05-01T02:19:28.557Z,1.05
2023-05-01T02:20:30.582Z,1.15
2023-05-01T02:21:35.991Z,1.30
2023-05-01T02:22:38.514Z,1.35
2023-05-01T02:23:41.323Z,1.50
2023-05-01T02:24:44.285Z,1.38
2023-05-01T02:25:48.647Z,1.20
2023-05-01T02:26:55.153Z,1.30
2023-05-01T02:28:01.375Z,1.27
2023-05-01T02:29:03.201Z,1.17
2023-05-01T02:30:06.974Z,1.20
2023-05-01T02:31:09.312Z,1.40
2023-05-01T02:32:12.284Z,1.20
2023-05-01T02:33:13.976Z,1.50
2023-05-01T02:34:16.868Z,1.30
2023-05-01T02:35:18.821Z,1.15
2023-05-01T02:36:21.601Z,1.30
2023-05-01T02:37:24.678Z,1.30
2023-05-01T02:38:27.408Z,1.27
2023-05-01T02:39:29.125Z,1.40
2023-05-01T02:40:32.846Z,1.10
2023-05-01T02:41:35.661Z,1.10
2023-05-01T02:42:38.896Z,1.13
2023-05-01T02:43:41.604Z,1.30
2023-05-01T02:44:51.848Z,1.30
2023-05-01T02:45:54.302Z,1.20
2023-05-01T02:46:57.399Z,1.40
2023-05-01T02:48:00.063Z,1.33
2023-05-01T02:49:04.144Z,1.30
2023-05-01T02:50:06.931Z,1.75
2023-05-01T02:51:10.698Z,1.15
2023-05-01T02:52:12.756Z,1.40
2023-05-01T02:53:17.094Z,1.30
2023-05-01T02:54:19.169Z,1.27
2023-05-01T02:55:21.952Z,1.45
2023-05-01T02:56:27.041Z,1.23
2023-05-01T02:57:29.744Z,1.50
2023-05-01T02:58:32.589Z,1.35
2023-05-01T02:59:35.371Z,1.40
2023-05-01T03:00:37.339Z,1.30
2023-05-01T03:01:40.217Z,1.50
2023-05-01T03:02:42.325Z,1.33
2023-05-01T03:03:45.104Z,1.20
2023-05-01T03:04:47.389Z,1.30
2023-05-01T03:05:50.123Z,1.50
2023-05-01T03:06:52.234Z,1.30
2023-05-01T03:07:55.032Z,1.30
2023-05-01T03:08:58.146Z,1.35
2023-05-01T03:10:00.912Z,1.40
2023-05-01T03:11:05.362Z,1.55
2023-05-01T03:12:08.076Z,1.50
2023-05-01T03:13:10.601Z,1.40
2023-05-01T03:14:13.318Z,1.30
2023-05-01T03:15:15.196Z,1.17
2023-05-01T03:16:17.891Z,1.20
2023-05-01T03:17:19.776Z,1.35
2023-05-01T03:18:22.513Z,1.05
2023-05-01T03:19:24.415Z,1.30
2023-05-01T03:20:27.656Z,1.50
2023-05-01T03:21:29.548Z,1.50
2023-05-01T03:22:33.180Z,1.23
2023-05-01T03:23:34.952Z,2.00
2023-05-01T03:24:38.973Z,1.50
2023-05-01T03:25:40.684Z,1.55
2023-05-01T03:26:43.353Z,1.73
2023-05-01T03:27:45.071Z,1.70
2023-05-01T03:28:47.811Z,1.13
2023-05-01T03:29:49.799Z,1.65
2023-05-01T03:30:53.411Z,1.17
2023-05-01T03:31:59.868Z,1.35
2023-05-01T03:33:01.770Z,1.52
2023-05-01T03:34:04.679Z,1.20
2023-05-01T03:35:07.849Z,1.50
2023-05-01T03:36:10.941Z,1.50
2023-05-01T03:37:12.625Z,1.40
2023-05-01T03:38:15.874Z,1.35
2023-05-01T03:39:17.677Z,1.15
2023-05-01T03:40:21.762Z,1.40
2023-05-01T03:41:23.525Z,1.50
2023-05-01T03:42:26.283Z,1.20
2023-05-01T03:43:28.024Z,1.20
2023-05-01T03:44:30.715Z,1.40
2023-05-01T03:45:32.533Z,1.20
2023-05-01T03:46:35.278Z,1.30
2023-05-01T03:47:37.091Z,1.20
2023-05-01T03:48:39.790Z,1.50
2023-05-01T03:49:43.581Z,1.30
2023-05-01T03:50:46.709Z,1.60
2023-05-01T03:51:48.828Z,1.73
2023-05-01T03:52:51.640Z,1.48
2023-05-01T03:53:53.345Z,1.52
2023-05-01T03:54:56.019Z,1.75
2023-05-01T03:55:59.064Z,1.20
2023-05-01T03:57:01.845Z,1.67
2023-05-01T03:58:03.532Z,1.42
2023-05-01T03:59:06.473Z,1.05
2023-05-01T04:00:09.668Z,1.48
2023-05-01T04:01:12.395Z,1.20
2023-05-01T04:02:16.963Z,1.23
2023-05-01T04:03:19.815Z,1.27
2023-05-01T04:04:21.634Z,1.40
2023-05-01T04:05:24.341Z,1.60
2023-05-01T04:06:26.193Z,1.30
2023-05-01T04:07:28.930Z,1.60
2023-05-01T04:08:30.690Z,1.42
2023-05-01T04:09:33.416Z,2.00
2023-05-01T04:10:35.913Z,1.52
2023-05-01T04:11:39.985Z,1.60
2023-05-01T04:12:41.727Z,1.25
2023-05-01T04:13:44.374Z,1.30
2023-05-01T04:14:46.111Z,1.27
2023-05-01T04:15:48.850Z,1.52
2023-05-01T04:16:51.094Z,1.23
2023-05-01T04:17:55.852Z,1.23
2023-05-01T04:18:57.589Z,1.30
2023-05-01T04:20:00.984Z,1.80
2023-05-01T04:21:02.691Z,1.45
2023-05-01T04:22:05.631Z,1.30
2023-05-01T04:23:08.741Z,1.50
2023-05-01T04:24:11.402Z,1.35
2023-05-01T04:25:13.138Z,1.35
2023-05-01T04:26:16.361Z,1.50
2023-05-01T04:27:19.688Z,1.30
2023-05-01T04:28:22.409Z,1.38
2023-05-01T04:29:25.325Z,1.42
2023-05-01T04:30:27.106Z,1.52
2023-05-01T04:31:29.761Z,1.55
2023-05-01T04:32:31.685Z,1.55
2023-05-01T04:33:34.339Z,1.17
2023-05-01T04:34:36.026Z,1.67
2023-05-01T04:35:39.164Z,1.40
2023-05-01T04:36:40.933Z,1.73
2023-05-01T04:37:43.608Z,1.67
2023-05-01T04:38:45.490Z,1.58
2023-05-01T04:39:48.530Z,1.42
2023-05-01T04:40:50.296Z,2.20
2023-05-01T04:41:52.967Z,1.40
2023-05-01T04:42:56.360Z,1.50
2023-05-01T04:43:59.122Z,1.58
2023-05-01T04:45:04.033Z,1.60
2023-05-01T04:46:07.070Z,1.63
2023-05-01T04:47:08.879Z,1.60
2023-05-01T04:48:11.794Z,1.55
2023-05-01T04:49:14.495Z,1.55
2023-05-01T04:50:17.187Z,1.60
2023-05-01T04:51:19.802Z,1.50
2023-05-01T04:52:22.807Z,1.33
2023-05-01T04:53:24.489Z,1.60
2023-05-01T04:54:27.665Z,1.70
2023-05-01T04:55:31.129Z,1.60
2023-05-01T04:56:34.101Z,1.63
2023-05-01T04:57:36.057Z,1.98
2023-05-01T04:58:40.094Z,1.50
2023-05-01T04:59:41.783Z,1.50
2023-05-01T05:00:44.478Z,1.70
2023-05-01T05:01:46.265Z,1.70
2023-05-01T05:02:49.054Z,1.55
2023-05-01T05:03:51.024Z,1.50
2023-05-01T05:04:54.551Z,1.63
2023-05-01T05:05:56.369Z,1.80
2023-05-01T05:06:59.113Z,1.80
2023-05-01T05:08:00.913Z,1.77
2023-05-01T05:09:03.719Z,1.52
2023-05-01T05:10:06.326Z,1.77
2023-05-01T05:11:09.171Z,1.63
2023-05-01T05:12:11.000Z,2.00
2023-05-01T05:13:13.750Z,1.70
2023-05-01T05:14:16.883Z,1.63
2023-05-01T05:15:19.530Z,2.25
2023-05-01T05:16:21.299Z,2.28
2023-05-01T05:17:24.003Z,1.67
2023-05-01T05:18:25.766Z,1.98
2023-05-01T05:19:28.534Z,1.85
2023-05-01T05:20:30.274Z,1.80
2023-05-01T05:21:32.998Z,1.83
2023-05-01T05:22:36.286Z,1.83
2023-05-01T05:23:39.016Z,2.22
2023-05-01T05:24:40.730Z,2.08
2023-05-01T05:25:43.507Z,1.52
2023-05-01T05:26:46.203Z,1.90
2023-05-01T05:27:47.949Z,1.55
2023-05-01T05:28:51.416Z,2.00
2023-05-01T05:29:54.715Z,2.50
2023-05-01T05:30:57.906Z,1.63
2023-05-01T05:32:00.728Z,1.80
2023-05-01T05:33:02.724Z,1.70
2023-05-01T05:34:05.466Z,1.80
2023-05-01T05:35:07.798Z,1.70
2023-05-01T05:36:10.524Z,1.95
2023-05-01T05:37:12.500Z,2.05
2023-05-01T05:38:15.653Z,1.83
2023-05-01T05:39:18.334Z,1.80
2023-05-01T05:40:20.138Z,2.03
2023-05-01T05:41:22.902Z,1.73
2023-05-01T05:42:24.624Z,2.05
2023-05-01T05:43:28.274Z,2.25
2023-05-01T05:44:31.659Z,1.88
2023-05-01T05:45:36.202Z,1.73
2023-05-01T05:46:38.041Z,1.98
2023-05-01T05:47:40.973Z,2.17
2023-05-01T05:48:42.680Z,2.10
2023-05-01T05:49:45.381Z,1.73
2023-05-01T05:50:47.087Z,1.60
2023-05-01T05:51:49.978Z,1.80
2023-05-01T05:52:51.671Z,2.20
2023-05-01T05:53:54.374Z,1.95
2023-05-01T05:54:56.206Z,2.28
2023-05-01T05:55:58.874Z,1.85
2023-05-01T05:57:00.549Z,1.88
2023-05-01T05:58:03.196Z,1.60
2023-05-01T05:59:06.583Z,1.85
2023-05-01T06:00:10.093Z,1.83
2023-05-01T06:01:14.999Z,1.98
2023-05-01T06:02:16.716Z,1.90
2023-05-01T06:03:19.666Z,1.90
2023-05-01T06:04:21.561Z,1.85
2023-05-01T06:05:24.409Z,1.80
2023-05-01T06:06:27.783Z,1.70
2023-05-01T06:07:29.571Z,2.00
2023-05-01T06:08:32.427Z,1.80
2023-05-01T06:09:34.206Z,1.65
2023-05-01T06:10:37.063Z,2.10
2023-05-01T06:11:38.796Z,2.03
2023-05-01T06:12:42.669Z,1.60
2023-05-01T06:13:49.189Z,2.28
2023-05-01T06:14:52.527Z,2.13
2023-05-01T06:15:54.316Z,1.90
2023-05-01T06:16:58.420Z,2.15
2023-05-01T06:18:00.352Z,1.88
2023-05-01T06:19:05.393Z,1.88
2023-05-01T06:20:08.470Z,2.03
2023-05-01T06:21:11.175Z,1.98
2023-05-01T06:22:12.896Z,2.58
2023-05-01T06:23:16.357Z,1.92
2023-05-01T06:24:18.454Z,2.25
2023-05-01T06:25:21.209Z,1.95
2023-05-01T06:26:23.300Z,2.10
2023-05-01T06:27:26.079Z,1.80
2023-05-01T06:28:27.833Z,1.80
2023-05-01T06:29:31.007Z,2.00
2023-05-01T06:30:32.715Z,2.80
2023-05-01T06:31:35.993Z,2.20
2023-05-01T06:32:39.262Z,1.90
2023-05-01T06:33:41.949Z,2.10
2023-05-01T06:34:43.921Z,2.10
2023-05-01T06:35:46.917Z,2.17
2023-05-01T06:36:48.688Z,2.28
2023-05-01T06:37:51.381Z,2.28
2023-05-01T06:38:53.084Z,2.00
2023-05-01T06:39:56.185Z,1.90
2023-05-01T06:40:58.070Z,2.08
2023-05-01T06:42:02.697Z,1.77
2023-05-01T06:43:04.760Z,2.53
2023-05-01T06:44:07.447Z,2.10
2023-05-01T06:45:09.303Z,2.00
2023-05-01T06:46:12.585Z,2.15
2023-05-01T06:47:14.669Z,2.42
2023-05-01T06:48:18.785Z,2.22
2023-05-01T06:49:20.552Z,2.00
2023-05-01T06:50:23.311Z,2.03
2023-05-01T06:51:25.131Z,1.98
2023-05-01T06:52:28.581Z,2.10
2023-05-01T06:53:30.656Z,2.15
2023-05-01T06:54:33.399Z,2.15
2023-05-01T06:55:36.089Z,2.30
2023-05-01T06:56:37.800Z,2.10
2023-05-01T06:57:41.345Z,2.17
2023-05-01T06:58:43.054Z,2.25
2023-05-01T06:59:45.739Z,2.22
2023-05-01T07:00:47.917Z,2.00
2023-05-01T07:01:50.661Z,2.05
2023-05-01T07:02:52.561Z,2.38
2023-05-01T07:03:56.767Z,2.42
2023-05-01T07:04:58.580Z,2.33
2023-05-01T07:06:01.358Z,1.88
2023-05-01T07:07:03.288Z,2.20
2023-05-01T07:08:06.563Z,2.10
2023-05-01T07:09:09.355Z,2.13
2023-05-01T07:10:11.074Z,2.30
2023-05-01T07:11:13.736Z,2.10
2023-05-01T07:12:15.454Z,2.00
2023-05-01T07:13:18.186Z,2.15
2023-05-01T07:14:19.877Z,2.25
2023-05-01T07:15:23.491Z,2.13
2023-05-01T07:16:25.264Z,2.38
2023-05-01T07:17:28.029Z,2.22
2023-05-01T07:18:30.757Z,1.92
2023-05-01T07:19:35.174Z,2.40
2023-05-01T07:20:36.844Z,2.28
2023-05-01T07:21:39.656Z,2.50
2023-05-01T07:22:41.344Z,1.85
2023-05-01T07:23:44.047Z,2.25
2023-05-01T07:24:45.770Z,2.40
2023-05-01T07:25:48.472Z,2.70
2023-05-01T07:26:50.214Z,1.80
2023-05-01T07:27:53.123Z,2.40
2023-05-01T07:28:55.822Z,2.25
2023-05-01T07:29:57.827Z,2.42
2023-05-01T07:31:01.669Z,2.42
2023-05-01T07:32:05.822Z,2.30
2023-05-01T07:33:07.746Z,2.28
2023-05-01T07:34:10.558Z,2.28
2023-05-01T07:35:13.703Z,2.30
2023-05-01T07:36:18.444Z,2.53
2023-05-01T07:37:20.247Z,2.15
2023-05-01T07:38:22.955Z,2.55
2023-05-01T07:39:25.083Z,2.40
2023-05-01T07:40:27.780Z,2.70
2023-05-01T07:41:29.502Z,2.42
2023-05-01T07:42:32.166Z,2.00
2023-05-01T07:43:35.032Z,2.53
2023-05-01T07:44:36.822Z,1.95
2023-05-01T07:45:39.900Z,2.30
2023-05-01T07:46:43.098Z,2.20
2023-05-01T07:47:46.159Z,2.40
2023-05-01T07:48:48.890Z,2.20
2023-05-01T07:49:50.651Z,2.35
2023-05-01T07:50:55.192Z,2.60
2023-05-01T07:51:56.885Z,2.65
2023-05-01T07:52:59.687Z,2.58
2023-05-01T07:54:04.549Z,2.38
2023-05-01T07:55:07.734Z,2.50
2023-05-01T07:56:11.241Z,2.15
2023-05-01T07:57:13.933Z,2.30
2023-05-01T07:58:16.770Z,2.58
2023-05-01T07:59:19.830Z,2.63
2023-05-01T08:00:21.759Z,2.42
2023-05-01T08:01:24.773Z,2.33
2023-05-01T08:02:27.165Z,2.55
2023-05-01T08:03:32.748Z,2.72
2023-05-01T08:04:35.713Z,2.30
2023-05-01T08:05:41.135Z,2.65
2023-05-01T08:06:45.243Z,2.30
2023-05-01T08:07:47.080Z,2.40
2023-05-01T08:08:49.797Z,2.30
2023-05-01T08:09:51.757Z,2.53
2023-05-01T08:10:56.482Z,2.80
2023-05-01T08:11:58.815Z,2.65
2023-05-01T08:13:01.472Z,2.58
2023-05-01T08:14:03.842Z,2.70
2023-05-01T08:15:08.580Z,2.38
2023-05-01T08:16:11.356Z,2.20
2023-05-01T08:17:13.454Z,2.65
2023-05-01T08:18:20.356Z,2.58
2023-05-01T08:19:23.160Z,2.72
2023-05-01T08:20:25.983Z,2.63
2023-05-01T08:21:28.650Z,2.25
2023-05-01T08:22:32.071Z,2.38
2023-05-01T08:23:34.899Z,2.60
2023-05-01T08:24:36.704Z,2.60
2023-05-01T08:25:39.343Z,2.50
2023-05-01T08:26:41.115Z,2.40
2023-05-01T08:27:43.917Z,2.65
2023-05-01T08:28:45.702Z,2.53
2023-05-01T08:29:48.494Z,2.42
2023-05-01T08:30:50.464Z,2.47
2023-05-01T08:31:53.383Z,2.28
2023-05-01T08:32:55.231Z,2.00
2023-05-01T08:33:58.005Z,2.30
2023-05-01T08:34:59.672Z,2.30
2023-05-01T08:36:02.460Z,2.47
2023-05-01T08:37:04.163Z,2.45
2023-05-01T08:38:08.281Z,2.50
2023-05-01T08:39:10.045Z,2.50
2023-05-01T08:40:13.088Z,2.15
2023-05-01T08:41:16.522Z,2.17
2023-05-01T08:42:19.678Z,2.42
2023-05-01T08:43:21.611Z,2.20
2023-05-01T08:44:25.820Z,2.25
2023-05-01T08:45:27.945Z,2.50
2023-05-01T08:46:37.318Z,2.67
2023-05-01T08:47:40.376Z,2.40
2023-05-01T08:48:44.177Z,2.80
2023-05-01T08:49:46.782Z,2.55
2023-05-01T08:50:49.897Z,2.45
2023-05-01T08:51:52.981Z,2.38
2023-05-01T08:52:56.231Z,2.28
2023-05-01T08:54:00.542Z,2.47
2023-05-01T08:55:03.603Z,2.88
2023-05-01T08:56:07.644Z,2.50
2023-05-01T08:57:10.610Z,2.42
2023-05-01T08:58:14.701Z,2.53
2023-05-01T08:59:17.880Z,2.35
2023-05-01T09:00:20.945Z,2.60
2023-05-01T09:01:24.733Z,2.63
2023-05-01T09:02:27.529Z,2.40
2023-05-01T09:03:33.288Z,2.63
2023-05-01T09:04:36.779Z,2.05
2023-05-01T09:05:39.941Z,2.17
2023-05-01T09:06:44.862Z,2.58
2023-05-01T09:07:48.307Z,2.10
2023-05-01T09:08:50.037Z,2.40
2023-05-01T09:09:54.322Z,2.50
2023-05-01T09:10:57.398Z,2.50
2023-05-01T09:12:03.268Z,2.70
2023-05-01T09:13:08.322Z,2.42
2023-05-01T09:14:10.103Z,2.50
2023-05-01T09:15:13.633Z,2.33
2023-05-01T09:16:15.518Z,2.38
2023-05-01T09:17:18.596Z,2.80
2023-05-01T09:18:20.671Z,2.45
2023-05-01T09:19:23.509Z,2.35
2023-05-01T09:20:26.950Z,2.60
2023-05-01T09:21:31.519Z,2.55
2023-05-01T09:22:34.959Z,2.63
2023-05-01T09:23:37.634Z,2.42
2023-05-01T09:24:40.510Z,2.50
2023-05-01T09:25:43.631Z,2.55
2023-05-01T09:26:46.364Z,2.50
2023-05-01T09:27:48.591Z,2.33
2023-05-01T09:28:57.282Z,2.80
2023-05-01T09:30:00.012Z,2.70
2023-05-01T09:31:10.108Z,2.55
2023-05-01T09:32:17.598Z,2.60
2023-05-01T09:33:20.658Z,2.60
2023-05-01T09:34:22.391Z,2.72
2023-05-01T09:35:25.042Z,2.35
2023-05-01T09:36:29.664Z,2.70
2023-05-01T09:37:32.859Z,2.45
2023-05-01T09:38:35.602Z,2.65
2023-05-01T09:39:37.596Z,2.58
2023-05-01T09:40:40.248Z,2.30
2023-05-01T09:41:53.456Z,2.45
2023-05-01T09:42:56.189Z,2.58
2023-05-01T09:43:59.504Z,2.78
2023-05-01T09:45:01.893Z,2.60
2023-05-01T09:46:06.761Z,2.63
2023-05-01T09:47:08.697Z,2.30
2023-05-01T09:48:13.033Z,2.80
2023-05-01T09:49:15.953Z,2.90
2023-05-01T09:50:29.780Z,2.40
2023-05-01T09:51:33.652Z,2.20
2023-05-01T09:52:35.509Z,2.33
2023-05-01T09:53:39.708Z,2.60
2023-05-01T09:54:42.602Z,2.67
2023-05-01T09:56:01.663Z,2.50
2023-05-01T09:57:06.384Z,2.53
2023-05-01T09:58:08.053Z,2.63
2023-05-01T09:59:18.185Z,2.65
2023-05-01T10:00:22.128Z,2.20
2023-05-01T10:01:41.262Z,2.30
2023-05-01T10:02:44.893Z,2.63
2023-05-01T10:03:55.029Z,2.30
2023-05-01T10:04:58.794Z,2.80
2023-05-01T10:06:03.000Z,2.40
2023-05-01T10:07:15.787Z,2.60
2023-05-01T10:08:17.645Z,2.67
2023-05-01T10:09:30.375Z,2.67
2023-05-01T10:10:33.080Z,2.42
2023-05-01T10:11:48.379Z,2.80
2023-05-01T10:12:53.980Z,2.67
2023-05-01T10:14:09.070Z,2.45
2023-05-01T10:15:24.567Z,2.55
2023-05-01T10:16:32.128Z,2.80
2023-05-01T10:17:35.349Z,2.45
2023-05-01T10:18:37.837Z,2.42
2023-05-01T10:19:40.497Z,2.70
2023-05-01T10:20:42.560Z,2.63
2023-05-01T10:21:45.493Z,2.22
2023-05-01T10:22:48.917Z,2.38
2023-05-01T10:23:53.012Z,2.50
2023-05-01T10:24:55.845Z,2.30
2023-05-01T10:25:58.593Z,2.80
2023-05-01T10:27:04.805Z,2.60
2023-05-01T10:28:09.226Z,3.03
2023-05-01T10:29:13.134Z,2.72
2023-05-01T10:30:14.935Z,2.58
2023-05-01T10:31:17.959Z,2.80
2023-05-01T10:32:20.972Z,2.55
2023-05-01T10:33:24.024Z,2.67
2023-05-01T10:34:28.182Z,2.40
2023-05-01T10:35:34.414Z,2.38
2023-05-01T10:36:39.306Z,2.72
2023-05-01T10:37:48.193Z,3.10
2023-05-01T10:38:50.014Z,2.70
2023-05-01T10:39:52.746Z,2.70
2023-05-01T10:40:54.446Z,2.40
2023-05-01T10:42:08.667Z,2.30
2023-05-01T10:43:16.109Z,2.58
2023-05-01T10:44:23.177Z,3.20
2023-05-01T10:45:33.206Z,2.63
2023-05-01T10:46:35.629Z,2.90
2023-05-01T10:47:48.718Z,2.50
2023-05-01T10:48:55.120Z,3.00
2023-05-01T10:50:08.128Z,2.60
2023-05-01T10:51:11.078Z,3.72
2023-05-01T10:52:14.206Z,2.80
2023-05-01T10:53:19.453Z,2.65
2023-05-01T10:54:26.740Z,2.70
2023-05-01T10:55:35.310Z,2.88
2023-05-01T10:56:44.691Z,2.70
2023-05-01T10:57:46.478Z,2.60
2023-05-01T10:59:12.941Z,2.83
2023-05-01T11:00:16.331Z,2.75
2023-05-01T11:01:29.704Z,2.85
2023-05-01T11:02:32.498Z,2.97
2023-05-01T11:03:40.170Z,2.72
2023-05-01T11:04:51.537Z,2.65
2023-05-01T11:06:05.638Z,2.67
2023-05-01T11:07:19.162Z,2.90
2023-05-01T11:08:30.890Z,2.92
2023-05-01T11:09:38.602Z,2.60
2023-05-01T11:10:41.428Z,2.60
2023-05-01T11:11:50.162Z,2.75
2023-05-01T11:12:53.836Z,2.55
2023-05-01T11:13:57.527Z,2.67
2023-05-01T11:15:07.989Z,2.97
2023-05-01T11:16:39.734Z,2.75
2023-05-01T11:17:49.750Z,2.45
2023-05-01T11:18:51.567Z,2.53
2023-05-01T11:19:54.599Z,2.70
2023-05-01T11:20:56.434Z,2.40
2023-05-01T11:21:59.581Z,2.80
2023-05-01T11:23:01.687Z,2.78
2023-05-01T11:24:04.733Z,2.47
2023-05-01T11:25:18.404Z,2.80
2023-05-01T11:26:22.505Z,2.88
2023-05-01T11:27:24.376Z,2.80
2023-05-01T11:28:27.075Z,2.47
2023-05-01T11:29:31.887Z,2.53
2023-05-01T11:30:39.463Z,3.03
2023-05-01T11:31:41.707Z,2.92
2023-05-01T11:32:46.154Z,2.60
2023-05-01T11:33:48.024Z,2.65
2023-05-01T11:34:51.210Z,2.72
2023-05-01T11:36:00.450Z,2.90
2023-05-01T11:37:03.162Z,2.80
2023-05-01T11:38:05.335Z,2.38
2023-05-01T11:39:15.775Z,2.85
2023-05-01T11:40:21.604Z,3.22
2023-05-01T11:41:24.949Z,2.47
2023-05-01T11:42:27.243Z,2.92
2023-05-01T11:43:30.036Z,2.92
2023-05-01T11:44:31.776Z,2.50
2023-05-01T11:45:34.973Z,2.72
2023-05-01T11:46:39.061Z,2.55
2023-05-01T11:47:41.224Z,3.10
2023-05-01T11:48:49.947Z,2.83
2023-05-01T11:49:53.499Z,2.40
2023-05-01T11:50:56.190Z,2.67
2023-05-01T11:51:59.092Z,2.70
2023-05-01T11:53:00.789Z,2.35
2023-05-01T11:54:04.884Z,2.40
2023-05-01T11:55:07.710Z,2.63
2023-05-01T11:56:26.641Z,2.80
2023-05-01T11:57:29.051Z,2.80
2023-05-01T11:58:33.841Z,2.67
2023-05-01T11:59:36.690Z,2.75
2023-05-01T12:00:39.857Z,2.60
2023-05-01T12:01:45.510Z,2.50
2023-05-01T12:02:57.556Z,2.17
2023-05-01T12:04:00.528Z,2.30
2023-05-01T12:05:15.583Z,2.55
2023-05-01T12:06:18.339Z,2.05
2023-05-01T12:07:21.773Z,2.53
2023-05-01T12:08:25.094Z,2.42
2023-05-01T12:09:27.049Z,2.35
2023-05-01T12:10:29.868Z,2.35
2023-05-01T12:11:32.851Z,2.10
2023-05-01T12:12:34.596Z,2.17
2023-05-01T12:13:37.493Z,2.00
2023-05-01T12:14:39.686Z,2.60
2023-05-01T12:15:45.190Z,2.10
2023-05-01T12:16:49.812Z,2.30
2023-05-01T12:17:52.648Z,2.30
2023-05-01T12:18:55.539Z,2.10
2023-05-01T12:19:57.824Z,2.20
2023-05-01T12:21:01.297Z,2.13
2023-05-01T12:22:06.983Z,2.22
2023-05-01T12:23:11.756Z,2.08
2023-05-01T12:24:16.096Z,2.20
2023-05-01T12:25:19.192Z,2.28
2023-05-01T12:26:23.875Z,2.05
2023-05-01T12:27:25.691Z,1.83
2023-05-01T12:28:29.193Z,2.03
2023-05-01T12:29:39.916Z,2.20
2023-05-01T12:30:44.885Z,2.13
2023-05-01T12:31:49.034Z,2.00
2023-05-01T12:32:52.162Z,2.10
2023-05-01T12:33:55.132Z,2.13
2023-05-01T12:34:57.986Z,2.20
2023-05-01T12:36:10.285Z,2.28
2023-05-01T12:37:12.141Z,2.20
2023-05-01T12:38:15.907Z,2.03
2023-05-01T12:39:17.651Z,2.00
2023-05-01T12:40:22.880Z,2.28
2023-05-01T12:41:34.778Z,2.25
2023-05-01T12:42:36.728Z,2.50
2023-05-01T12:43:39.418Z,2.05
2023-05-01T12:44:41.315Z,2.40
2023-05-01T12:45:44.026Z,2.22
2023-05-01T12:46:47.459Z,2.70
2023-05-01T12:47:52.013Z,2.30
2023-05-01T12:48:54.561Z,2.25
2023-05-01T12:50:03.235Z,2.22
2023-05-01T12:51:09.132Z,2.10
2023-05-01T12:52:10.992Z,2.47
2023-05-01T12:53:13.727Z,2.35
2023-05-01T12:54:20.503Z,2.40
2023-05-01T12:55:23.694Z,2.40
2023-05-01T12:56:25.833Z,2.45
2023-05-01T12:57:28.571Z,2.88
2023-05-01T12:58:38.105Z,2.30
2023-05-01T12:59:41.243Z,2.55
2023-05-01T13:00:46.013Z,2.60
2023-05-01T13:01:47.867Z,2.28
2023-05-01T13:02:52.044Z,2.50
2023-05-01T13:03:56.540Z,2.47
2023-05-01T13:05:09.292Z,2.35
2023-05-01T13:06:11.608Z,2.67
2023-05-01T13:07:15.658Z,2.50
2023-05-01T13:08:25.264Z,2.70
2023-05-01T13:09:30.885Z,2.55
2023-05-01T13:10:32.785Z,2.78
2023-05-01T13:11:36.630Z,3.00
2023-05-01T13:12:44.317Z,2.55
2023-05-01T13:13:49.411Z,2.35
2023-05-01T13:14:51.466Z,2.70
2023-05-01T13:15:54.413Z,2.47
2023-05-01T13:16:56.196Z,2.50
2023-05-01T13:18:06.286Z,2.60
2023-05-01T13:19:08.079Z,2.20
2023-05-01T13:20:11.914Z,2.33
2023-05-01T13:21:16.029Z,2.63
2023-05-01T13:22:18.908Z,2.30
2023-05-01T13:23:20.688Z,2.50
2023-05-01T13:24:23.515Z,2.53
2023-05-01T13:25:25.513Z,2.60
2023-05-01T13:26:30.313Z,2.40
2023-05-01T13:27:32.513Z,2.50
2023-05-01T13:28:36.662Z,2.17
2023-05-01T13:29:39.828Z,2.50
2023-05-01T13:30:41.616Z,2.60
2023-05-01T13:31:45.136Z,2.67
2023-05-01T13:32:47.254Z,2.30
2023-05-01T13:33:52.610Z,2.45
2023-05-01T13:34:54.396Z,2.47
2023-05-01T13:35:57.856Z,2.42
2023-05-01T13:37:01.057Z,2.53
2023-05-01T13:38:04.806Z,2.40
2023-05-01T13:39:06.752Z,2.55
2023-05-01T13:40:10.637Z,2.20
2023-05-01T13:41:19.713Z,2.35
2023-05-01T13:42:24.587Z,2.60
2023-05-01T13:43:26.277Z,2.47
2023-05-01T13:44:29.461Z,2.47
2023-05-01T13:45:31.261Z,2.38
2023-05-01T13:46:34.123Z,2.30
2023-05-01T13:47:40.138Z,2.45
2023-05-01T13:48:42.483Z,2.15
2023-05-01T13:49:48.191Z,2.60
2023-05-01T13:50:49.869Z,2.33
2023-05-01T13:51:52.688Z,2.08
2023-05-01T13:52:54.494Z,2.00
2023-05-01T13:53:57.387Z,2.40
2023-05-01T13:55:00.523Z,2.95
2023-05-01T13:56:04.243Z,2.30
2023-05-01T13:57:06.916Z,2.25
2023-05-01T13:58:09.731Z,2.63
2023-05-01T13:59:11.480Z,2.50
2023-05-01T14:00:19.205Z,2.47
2023-05-01T14:01:22.454Z,2.72
2023-05-01T14:02:27.784Z,2.47
2023-05-01T14:03:31.001Z,2.80
2023-05-01T14:04:36.530Z,2.15
2023-05-01T14:05:40.137Z,2.50
2023-05-01T14:06:43.975Z,2.40
2023-05-01T14:07:52.076Z,2.45
2023-05-01T14:08:54.397Z,2.40
2023-05-01T14:09:58.325Z,2.15
2023-05-01T14:11:01.396Z,2.45